Nearby METAR Reports

 

EIDW - Dublin Airport, Ireland
Distance from station: NE 54mi, 87km
Updated: 22/04/2018 15:00
Partly cloudy
Partly cloudy
 Wind from WSW
Wind: WSW 37 km/h
Temperature: 13°C
Dew Point: 7°C
Humidity: 67%
Barometer: 1006 hPa
Clouds: Partly cloudy
Visibility: 10 km
Cloud details: Few Clouds 671 m
Partly cloudy 2134 m
2018/04/22 14:00 EIDW 221400Z 25020KT 9999 FEW022 SCT070 13/07 Q1006 NOSIG
EINN - Shannon Airport, Ireland
Distance from station: W 73mi, 117km
Updated: 22/04/2018 15:00
Mostly cloudy
Mostly cloudy
 Wind from WSW
Wind: WSW 37 km/h
Temperature: 12°C
Dew Point: 7°C
Humidity: 72%
Barometer: 1009 hPa
Clouds: Mostly cloudy
Visibility: 10 km
Cloud details: Few Clouds 549 m
Partly cloudy 792 m
Mostly cloudy 2438 m
2018/04/22 14:00 EINN 221400Z 24020KT 9999 FEW018 SCT026 BKN080 12/07 Q1009 NOSIG
 
EICK - Cork Arpt/Corcai, Ireland
Distance from station: SW 87mi, 141km
Updated: 22/04/2018 15:00
Mostly cloudy
Mostly cloudy
 Wind from W
Wind: W 28 km/h
Temperature: 12°C
Dew Point: 6°C
Humidity: 67%
Barometer: 1010 hPa
Clouds: Mostly cloudy
Visibility: 10 km
Cloud details: Partly cloudy 610 m
Mostly cloudy 1372 m
2018/04/22 14:00 EICK 221400Z 28015KT 9999 SCT020 BKN045 12/06 Q1010 NOSIG
EIKN - Connaught Apt, Ireland
Distance from station: NW 100mi, 161km
Updated: 22/04/2018 15:00
Partly cloudy
Partly cloudy
 Wind from WSW
Wind: WSW 26 km/h
Temperature: 9°C
Wind Chill: 6°C
Dew Point: 8°C
Humidity: 94%
Barometer: 1005 hPa
Clouds: Partly cloudy
Visibility: 10 km
Cloud details: Partly cloudy 396 m
Partly cloudy 549 m
2018/04/22 14:00 EIKN 221400Z 25014KT 9999 SCT013 SCT018CB 09/08 Q1005 NOSIG
 
EGOV - Valley Raf, United Kingdom
Distance from station: ENE 114mi, 183km
Updated: 22/04/2018 14:50
Few Clouds
Few Clouds
 Wind from SSW
Wind: SSW 24 km/h
Temperature: 12°C
Dew Point: 9°C
Humidity: 82%
Barometer: 1008 hPa
Clouds: Few Clouds
Visibility: 10 km
Cloud details: Few Clouds 30 m
2018/04/22 13:50 EGOV 221350Z AUTO 20013KT 9999 FEW001/// 12/09 Q1008
EGAA - Belfast/Aldergro, United Kingdom
Distance from station: NNE 130mi, 209km
Updated: 22/04/2018 14:50
Partly cloudy
Partly cloudy
 Wind from SW
Wind: SW 20 km/h
Temperature: 11°C
Dew Point: 8°C
Humidity: 82%
Barometer: 1004 hPa
Clouds: Partly cloudy
Visibility: 10 km
Cloud details: Partly cloudy 366 m
2018/04/22 13:50 EGAA 221350Z 22011KT 9999 SCT012 11/08 Q1004
 
EGAC - Belfast Harbour, United Kingdom
Distance from station: NNE 134mi, 215km
Updated: 22/04/2018 14:50
Light rain, Mostly cloudy
Light rain, Mostly cloudy
 Wind from WSW
Wind: WSW 24 km/h
Temperature: 12°C
Dew Point: 8°C
Humidity: 77%
Barometer: 1004 hPa
Summary: Light rain
Clouds: Mostly cloudy
Visibility: 10 km
Cloud details: Few Clouds 792 m
Mostly cloudy 1372 m
2018/04/22 13:50 EGAC 221350Z AUTO 24013KT 9999 -RA FEW026/// BKN045/// 12/08 Q1004 RERA
EGNS - Isle Of Man/Rona, United Kingdom
Distance from station: NE 135mi, 218km
Updated: 22/04/2018 14:50
Few Clouds
Few Clouds
 Wind from SW
Wind: SW 19 km/h
Temperature: 12°C
Dew Point: 9°C
Humidity: 82%
Barometer: 1006 hPa
Clouds: Few Clouds
Visibility: 10 km
Cloud details: Few Clouds 610 m
2018/04/22 13:50 EGNS 221350Z 22010KT 9999 FEW020 12/09 Q1006 NOSIG